Time;durP1;ratioP1;P1;durP2;ratioP2;P2;SDS_P1;SDS_P2;PMS_P1;PMS_P2;Temp;Humidity;BMP_temperature;BMP_pressure;BME280_temperature;BME280_humidity;BME280_pressure;Samples;Min_cycle;Max_cycle;Signal;HPM_P1;HPM_P2
2024/02/21 00:00:41;;;;;;;;;;;231.20;2252.80;;;;;;4986502;28;20431;-79
2024/02/21 00:03:07;;;;;;;;;;;231.20;2252.80;;;;;;4988881;28;19906;-79
2024/02/21 00:05:33;;;;;;;;;;;231.10;2252.80;;;;;;4965952;28;19913;-74
2024/02/21 00:07:59;;;;;;;;;;;231.10;2252.80;;;;;;4977725;28;19964;-74
2024/02/21 00:10:25;;;;;;;;;;;231.10;2252.80;;;;;;4986050;28;19917;-74
2024/02/21 00:12:51;;;;;;;;;;;231.10;2252.80;;;;;;4986439;28;19914;-77
2024/02/21 00:15:16;;;;;;;;;;;231.00;2252.80;;;;;;4991598;28;19967;-75
2024/02/21 00:17:43;;;;;;;;;;;231.00;2252.80;;;;;;4985953;28;19910;-77
2024/02/21 00:20:10;;;;;;;;;;;231.00;2252.80;;;;;;4985172;28;19905;-75
2024/02/21 00:22:35;;;;;;;;;;;231.00;2252.80;;;;;;4988728;28;19906;-73
2024/02/21 00:25:01;;;;;;;;;;;231.00;2252.80;;;;;;4976568;28;19969;-73
2024/02/21 00:27:27;;;;;;;;;;;231.00;2252.80;;;;;;4984881;28;19912;-77
2024/02/21 00:29:53;;;;;;;;;;;230.90;2252.80;;;;;;4986299;28;19922;-76
2024/02/21 00:32:18;;;;;;;;;;;230.90;2252.80;;;;;;4987267;28;19906;-74
2024/02/21 00:34:44;;;;;;;;;;;230.90;2252.80;;;;;;4985064;28;20004;-73
2024/02/21 00:37:10;;;;;;;;;;;230.90;2252.80;;;;;;4980433;28;19934;-72
2024/02/21 00:39:36;;;;;;;;;;;230.90;2252.80;;;;;;4980861;28;20280;-74
2024/02/21 00:42:02;;;;;;;;;;;230.90;2252.80;;;;;;4984508;28;19910;-74
2024/02/21 00:44:28;;;;;;;;;;;230.90;2252.80;;;;;;4987442;28;19953;-74
2024/02/21 00:46:53;;;;;;;;;;;230.80;2252.80;;;;;;4974173;28;19956;-74
2024/02/21 00:49:19;;;;;;;;;;;230.80;2252.80;;;;;;4979373;28;19922;-76
2024/02/21 00:51:45;;;;;;;;;;;230.80;2252.80;;;;;;4988299;28;19909;-74
2024/02/21 00:54:10;;;;;;;;;;;230.70;2252.80;;;;;;4985809;28;19964;-74
2024/02/21 00:56:36;;;;;;;;;;;230.70;2252.80;;;;;;4987363;28;20420;-75
2024/02/21 00:59:01;;;;;;;;;;;230.70;2252.80;;;;;;4977433;28;20487;-74
2024/02/21 01:01:27;;;;;;;;;;;230.50;2252.80;;;;;;4985337;28;19914;-74
2024/02/21 01:03:55;;;;;;;;;;;230.60;2252.80;;;;;;4988869;28;20000;-74
2024/02/21 01:06:21;;;;;;;;;;;230.50;2252.80;;;;;;4990878;28;20355;-74
2024/02/21 01:08:47;;;;;;;;;;;230.60;2252.80;;;;;;4969451;28;19973;-78
2024/02/21 01:11:14;;;;;;;;;;;230.50;2252.80;;;;;;4967702;28;19913;-75
2024/02/21 01:13:39;;;;;;;;;;;230.50;2252.80;;;;;;4984221;28;19913;-80
2024/02/21 01:16:06;;;;;;;;;;;230.50;2252.80;;;;;;4984767;28;19905;-74
2024/02/21 01:18:34;;;;;;;;;;;230.60;2252.80;;;;;;4979521;28;19969;-80
2024/02/21 01:21:01;;;;;;;;;;;230.60;2252.80;;;;;;4993569;28;20519;-74
2024/02/21 01:23:26;;;;;;;;;;;230.90;2252.80;;;;;;4987505;28;19960;-75
2024/02/21 01:25:52;;;;;;;;;;;230.60;2252.80;;;;;;4984924;28;19906;-74
2024/02/21 01:28:18;;;;;;;;;;;230.60;2252.80;;;;;;4984165;28;19914;-79
2024/02/21 01:30:43;;;;;;;;;;;230.60;2252.80;;;;;;4982961;28;19918;-74
2024/02/21 01:33:09;;;;;;;;;;;230.60;2252.80;;;;;;4987284;28;19952;-74
2024/02/21 01:35:35;;;;;;;;;;;230.70;2252.80;;;;;;4987627;28;19917;-74
2024/02/21 01:38:01;;;;;;;;;;;230.70;2252.80;;;;;;4979620;28;19910;-74
2024/02/21 01:40:27;;;;;;;;;;;230.70;2252.80;;;;;;4985859;28;19960;-74
2024/02/21 01:42:54;;;;;;;;;;;230.60;2252.80;;;;;;4995665;28;19913;-74
2024/02/21 01:45:20;;;;;;;;;;;230.60;2252.80;;;;;;4996260;28;19917;-80
2024/02/21 01:47:46;;;;;;;;;;;230.60;2252.80;;;;;;4975350;28;20103;-75
2024/02/21 01:50:11;;;;;;;;;;;230.60;2252.80;;;;;;4976206;28;19918;-74
2024/02/21 01:52:37;;;;;;;;;;;230.60;2252.80;;;;;;4959300;28;20351;-75
2024/02/21 01:55:04;;;;;;;;;;;230.60;2252.80;;;;;;4959207;28;19927;-74
2024/02/21 01:57:30;;;;;;;;;;;230.60;2252.80;;;;;;4975118;28;19912;-75
2024/02/21 01:59:55;;;;;;;;;;;230.50;2252.80;;;;;;4976483;28;19914;-73
2024/02/21 02:02:21;;;;;;;;;;;230.50;2252.80;;;;;;4975438;28;20415;-79
2024/02/21 02:04:47;;;;;;;;;;;230.40;2252.80;;;;;;4976173;28;19906;-74
2024/02/21 02:07:12;;;;;;;;;;;230.40;2252.80;;;;;;4976289;28;19913;-74
2024/02/21 02:09:38;;;;;;;;;;;205.70;2252.80;;;;;;4975954;28;19965;-78
2024/02/21 02:12:04;;;;;;;;;;;205.70;2252.80;;;;;;4974853;28;20002;-75
2024/02/21 02:14:30;;;;;;;;;;;205.60;2252.80;;;;;;4976052;28;20423;-74
2024/02/21 02:16:55;;;;;;;;;;;205.50;2252.80;;;;;;4976082;28;19992;-73
2024/02/21 02:19:21;;;;;;;;;;;205.50;2252.80;;;;;;4976016;28;20000;-75
2024/02/21 02:21:53;;;;;;;;;;;205.40;2252.80;;;;;;4975951;28;20279;-74
2024/02/21 02:24:19;;;;;;;;;;;205.30;2252.80;;;;;;4975988;28;19906;-75
2024/02/21 02:26:45;;;;;;;;;;;205.30;2252.80;;;;;;4975616;28;19948;-74
2024/02/21 02:29:11;;;;;;;;;;;205.20;2252.80;;;;;;4975625;28;19986;-74
2024/02/21 02:31:37;;;;;;;;;;;205.20;2252.80;;;;;;4975929;28;20364;-75
2024/02/21 02:34:03;;;;;;;;;;;205.20;2252.80;;;;;;4975761;28;19906;-74
2024/02/21 02:36:29;;;;;;;;;;;205.20;2252.80;;;;;;4975567;28;19906;-75
2024/02/21 02:38:55;;;;;;;;;;;205.20;2252.80;;;;;;4975747;28;19917;-75
2024/02/21 02:41:20;;;;;;;;;;;205.00;2252.80;;;;;;4975526;28;19910;-75
2024/02/21 02:43:46;;;;;;;;;;;205.00;2252.80;;;;;;4958210;28;19941;-74
2024/02/21 02:46:12;;;;;;;;;;;205.00;2252.80;;;;;;4975474;28;19915;-74
2024/02/21 02:48:38;;;;;;;;;;;205.00;2252.80;;;;;;4975454;28;20009;-74
2024/02/21 02:51:04;;;;;;;;;;;205.00;2252.80;;;;;;4975510;28;20339;-76
2024/02/21 02:53:29;;;;;;;;;;;204.90;2252.80;;;;;;4975432;28;19998;-74
2024/02/21 02:55:55;;;;;;;;;;;204.80;2252.80;;;;;;4957920;28;19948;-73
2024/02/21 02:58:21;;;;;;;;;;;204.90;2252.80;;;;;;4975258;28;19910;-75
2024/02/21 03:00:46;;;;;;;;;;;204.90;2252.80;;;;;;4975269;28;20283;-75
2024/02/21 03:03:12;;;;;;;;;;;204.90;2252.80;;;;;;4958107;28;19906;-75
2024/02/21 03:05:37;;;;;;;;;;;205.00;2252.80;;;;;;4975190;28;19912;-74
2024/02/21 03:08:06;;;;;;;;;;;205.10;2252.80;;;;;;4975111;28;19932;-75
2024/02/21 03:10:35;;;;;;;;;;;205.10;2252.80;;;;;;4974935;28;19917;-74
2024/02/21 03:13:01;;;;;;;;;;;205.10;2252.80;;;;;;4975032;28;19910;-74
2024/02/21 03:15:26;;;;;;;;;;;205.10;2252.80;;;;;;4974789;28;19913;-74
2024/02/21 03:17:52;;;;;;;;;;;205.10;2252.80;;;;;;4975106;28;19906;-81
2024/02/21 03:20:19;;;;;;;;;;;204.90;2252.80;;;;;;4975024;28;19941;-75
2024/02/21 03:22:45;;;;;;;;;;;204.80;2252.80;;;;;;4957293;28;19913;-74
2024/02/21 03:25:12;;;;;;;;;;;180.10;2252.80;;;;;;4974898;28;20278;-75
2024/02/21 03:27:38;;;;;;;;;;;180.00;2252.80;;;;;;4974945;28;20382;-74
2024/02/21 03:30:04;;;;;;;;;;;180.00;2252.80;;;;;;4974709;28;19918;-81
2024/02/21 03:32:30;;;;;;;;;;;180.00;2252.80;;;;;;4974875;28;19906;-77
2024/02/21 03:34:55;;;;;;;;;;;179.90;2252.80;;;;;;4974842;28;20371;-75
2024/02/21 03:37:21;;;;;;;;;;;179.90;2252.80;;;;;;4974872;28;19906;-74
2024/02/21 03:39:46;;;;;;;;;;;179.90;2252.80;;;;;;4974819;28;19906;-75
2024/02/21 03:42:12;;;;;;;;;;;180.00;2252.80;;;;;;4974578;28;19906;-77
2024/02/21 03:44:38;;;;;;;;;;;180.00;2252.80;;;;;;4957481;28;19956;-76
2024/02/21 03:47:04;;;;;;;;;;;180.00;2252.80;;;;;;4974724;28;19906;-76
2024/02/21 03:49:29;;;;;;;;;;;180.00;2252.80;;;;;;4974743;28;19961;-74
2024/02/21 03:51:55;;;;;;;;;;;180.00;2252.80;;;;;;4957390;28;20408;-74
2024/02/21 03:54:21;;;;;;;;;;;180.00;2252.80;;;;;;4974618;28;19910;-74
2024/02/21 03:56:47;;;;;;;;;;;179.80;2252.80;;;;;;4957340;28;19957;-75
2024/02/21 03:59:13;;;;;;;;;;;179.60;2252.80;;;;;;4974373;28;19920;-75
2024/02/21 04:01:39;;;;;;;;;;;179.50;2252.80;;;;;;4986927;28;20389;-75
2024/02/21 04:04:04;;;;;;;;;;;179.30;2252.80;;;;;;4994327;28;19913;-75
2024/02/21 04:06:30;;;;;;;;;;;154.50;2252.80;;;;;;4993872;28;19949;-74
2024/02/21 04:08:56;;;;;;;;;;;154.40;2252.80;;;;;;4992519;28;19921;-75
2024/02/21 04:11:22;;;;;;;;;;;154.30;2252.80;;;;;;4993740;28;19906;-81
2024/02/21 04:13:49;;;;;;;;;;;154.20;2252.80;;;;;;4994109;28;19912;-74
2024/02/21 04:16:16;;;;;;;;;;;154.10;2252.80;;;;;;4992634;28;19906;-74
2024/02/21 04:18:41;;;;;;;;;;;154.10;2252.80;;;;;;4993646;28;20455;-74
2024/02/21 04:21:07;;;;;;;;;;;154.00;2252.80;;;;;;4993905;28;19953;-75
2024/02/21 04:23:33;;;;;;;;;;;153.90;2252.80;;;;;;4993768;28;19906;-74
2024/02/21 04:25:59;;;;;;;;;;;154.10;2252.80;;;;;;4994462;28;20016;-75
2024/02/21 04:28:24;;;;;;;;;;;154.10;2252.80;;;;;;4997455;28;19914;-75
2024/02/21 04:30:50;;;;;;;;;;;154.20;2252.80;;;;;;4997289;28;19913;-75
2024/02/21 04:33:15;;;;;;;;;;;154.40;2252.80;;;;;;4996228;28;20379;-80
2024/02/21 04:35:41;;;;;;;;;;;154.50;2252.80;;;;;;4997415;28;19949;-75
2024/02/21 04:38:06;;;;;;;;;;;154.50;2252.80;;;;;;4997404;28;19906;-75
2024/02/21 04:40:32;;;;;;;;;;;154.50;2252.80;;;;;;4997401;28;20363;-75
2024/02/21 04:42:58;;;;;;;;;;;179.20;2252.80;;;;;;4997224;28;19913;-75
2024/02/21 04:45:23;;;;;;;;;;;179.30;2252.80;;;;;;4985914;28;20351;-75
2024/02/21 04:47:49;;;;;;;;;;;179.30;2252.80;;;;;;4984333;28;20356;-74
2024/02/21 04:50:15;;;;;;;;;;;179.30;2252.80;;;;;;4983308;28;20053;-75
2024/02/21 04:52:40;;;;;;;;;;;179.30;2252.80;;;;;;4985928;28;20271;-74
2024/02/21 04:55:07;;;;;;;;;;;179.30;2252.80;;;;;;4981447;28;19953;-74
2024/02/21 04:57:32;;;;;;;;;;;179.40;2252.80;;;;;;4979332;28;19960;-74
2024/02/21 04:59:58;;;;;;;;;;;179.40;2252.80;;;;;;4985503;28;19913;-74
2024/02/21 05:02:24;;;;;;;;;;;179.50;2252.80;;;;;;4986147;28;19906;-74
2024/02/21 05:04:50;;;;;;;;;;;179.90;2252.80;;;;;;4990065;28;20066;-74
2024/02/21 05:07:16;;;;;;;;;;;179.60;2252.80;;;;;;4982863;28;20004;-75
2024/02/21 05:09:44;;;;;;;;;;;179.70;2252.80;;;;;;4991206;28;19913;-74
2024/02/21 05:12:10;;;;;;;;;;;179.70;2252.80;;;;;;4984582;28;19906;-73
2024/02/21 05:14:35;;;;;;;;;;;179.70;2252.80;;;;;;4982510;28;20256;-73
2024/02/21 05:17:01;;;;;;;;;;;179.80;2252.80;;;;;;4993660;28;19953;-74
2024/02/21 05:19:26;;;;;;;;;;;179.90;2252.80;;;;;;4986877;28;19913;-74
2024/02/21 05:21:52;;;;;;;;;;;180.00;2252.80;;;;;;4985266;28;19913;-75
2024/02/21 05:24:18;;;;;;;;;;;180.10;2252.80;;;;;;4988468;28;19926;-76
2024/02/21 05:26:43;;;;;;;;;;;180.10;2252.80;;;;;;4986279;28;20260;-74
2024/02/21 05:29:09;;;;;;;;;;;180.10;2252.80;;;;;;4992467;28;20272;-74
2024/02/21 05:31:53;;;;;;;;;;;204.80;2252.80;;;;;;4984125;28;20003;-74
2024/02/21 05:34:19;;;;;;;;;;;204.80;2252.80;;;;;;4986345;28;20418;-74
2024/02/21 05:36:44;;;;;;;;;;;204.80;2252.80;;;;;;4989433;28;19906;-74
2024/02/21 05:39:10;;;;;;;;;;;204.80;2252.80;;;;;;4989894;28;19914;-74
2024/02/21 05:41:36;;;;;;;;;;;204.80;2252.80;;;;;;4979720;28;19906;-74
2024/02/21 05:44:01;;;;;;;;;;;204.80;2252.80;;;;;;4992212;28;19910;-74
2024/02/21 05:46:27;;;;;;;;;;;204.80;2252.80;;;;;;4991055;28;20236;-76
2024/02/21 05:48:53;;;;;;;;;;;180.10;2252.80;;;;;;4985300;28;19925;-75
2024/02/21 05:51:18;;;;;;;;;;;180.00;2252.80;;;;;;4989264;28;19912;-72
2024/02/21 05:53:44;;;;;;;;;;;180.00;2252.80;;;;;;4986351;28;20387;-75
2024/02/21 05:56:11;;;;;;;;;;;179.90;2252.80;;;;;;4992854;28;19969;-77
2024/02/21 05:58:36;;;;;;;;;;;179.90;2252.80;;;;;;4981368;28;19916;-73
2024/02/21 06:01:03;;;;;;;;;;;179.80;2252.80;;;;;;4984158;28;19993;-73
2024/02/21 06:03:29;;;;;;;;;;;179.80;2252.80;;;;;;4989276;28;19906;-73
2024/02/21 06:05:54;;;;;;;;;;;179.70;2252.80;;;;;;4993727;28;19932;-73
2024/02/21 06:08:20;;;;;;;;;;;179.70;2252.80;;;;;;4989682;28;19961;-73
2024/02/21 06:10:47;;;;;;;;;;;179.70;2252.80;;;;;;4986861;28;19913;-75
2024/02/21 06:13:12;;;;;;;;;;;179.70;2252.80;;;;;;4982389;28;20377;-75
2024/02/21 06:15:38;;;;;;;;;;;179.70;2252.80;;;;;;4974089;28;20004;-78
2024/02/21 06:18:04;;;;;;;;;;;179.80;2252.80;;;;;;4987325;28;19920;-75
2024/02/21 06:20:29;;;;;;;;;;;179.70;2252.80;;;;;;4985851;28;19996;-75
2024/02/21 06:22:55;;;;;;;;;;;179.70;2252.80;;;;;;4970825;28;20029;-79
2024/02/21 06:25:20;;;;;;;;;;;179.70;2252.80;;;;;;4990364;28;19910;-71
2024/02/21 06:27:46;;;;;;;;;;;179.70;2252.80;;;;;;4995010;28;19906;-75
2024/02/21 06:30:12;;;;;;;;;;;179.70;2252.80;;;;;;4991037;28;19909;-76
2024/02/21 06:32:37;;;;;;;;;;;179.80;2252.80;;;;;;4983480;28;19910;-76
2024/02/21 06:35:04;;;;;;;;;;;179.80;2252.80;;;;;;4977332;28;19960;-80
2024/02/21 06:37:30;;;;;;;;;;;179.80;2252.80;;;;;;4973582;28;19928;-75
2024/02/21 06:39:55;;;;;;;;;;;179.90;2252.80;;;;;;4986494;28;20415;-79
2024/02/21 06:42:21;;;;;;;;;;;180.00;2252.80;;;;;;4982104;28;19913;-76
2024/02/21 06:44:47;;;;;;;;;;;180.10;2252.80;;;;;;4980060;28;19913;-82
2024/02/21 06:47:12;;;;;;;;;;;180.10;2252.80;;;;;;4986652;28;19909;-73
2024/02/21 06:49:38;;;;;;;;;;;204.80;2252.80;;;;;;4981070;28;20351;-74
2024/02/21 06:52:04;;;;;;;;;;;204.90;2252.80;;;;;;4978737;28;19906;-74
2024/02/21 06:54:30;;;;;;;;;;;205.00;2252.80;;;;;;4989144;28;20342;-74
2024/02/21 06:56:56;;;;;;;;;;;205.00;2252.80;;;;;;4981977;28;19937;-74
2024/02/21 06:59:22;;;;;;;;;;;205.10;2252.80;;;;;;4980952;28;19950;-79
2024/02/21 07:01:53;;;;;;;;;;;205.10;2252.80;;;;;;4986806;28;19960;-75
2024/02/21 07:04:18;;;;;;;;;;;205.20;2252.80;;;;;;4962922;28;20390;-75
2024/02/21 07:06:44;;;;;;;;;;;205.20;2252.80;;;;;;4988026;28;19906;-75
2024/02/21 07:09:09;;;;;;;;;;;205.20;2252.80;;;;;;4980315;28;19914;-75
2024/02/21 07:11:35;;;;;;;;;;;205.20;2252.80;;;;;;4984999;28;19913;-75
2024/02/21 07:14:00;;;;;;;;;;;205.20;2252.80;;;;;;4982810;28;19910;-75
2024/02/21 07:16:28;;;;;;;;;;;205.20;2252.80;;;;;;4986855;28;20300;-75
2024/02/21 07:18:54;;;;;;;;;;;205.30;2252.80;;;;;;4979214;28;19906;-77
2024/02/21 07:21:20;;;;;;;;;;;205.40;2252.80;;;;;;4987701;28;19912;-77
2024/02/21 07:23:45;;;;;;;;;;;205.40;2252.80;;;;;;4982829;28;19996;-76
2024/02/21 07:26:11;;;;;;;;;;;205.50;2252.80;;;;;;4972341;28;19906;-77
2024/02/21 07:28:37;;;;;;;;;;;205.50;2252.80;;;;;;4972994;28;19968;-77
2024/02/21 07:31:02;;;;;;;;;;;205.60;2252.80;;;;;;4988526;28;19928;-76
2024/02/21 07:33:28;;;;;;;;;;;205.70;2252.80;;;;;;4980849;28;19914;-75
2024/02/21 07:35:53;;;;;;;;;;;230.40;2252.80;;;;;;4987439;28;19910;-76
2024/02/21 07:38:19;;;;;;;;;;;230.40;2252.80;;;;;;4984572;28;19905;-75
2024/02/21 07:40:45;;;;;;;;;;;230.40;2252.80;;;;;;4959728;28;20348;-75
2024/02/21 07:43:11;;;;;;;;;;;230.50;2252.80;;;;;;4985726;28;20383;-77
2024/02/21 07:45:38;;;;;;;;;;;230.50;2252.80;;;;;;4975854;28;19906;-77
2024/02/21 07:48:03;;;;;;;;;;;230.60;2252.80;;;;;;4984403;28;20459;-77
2024/02/21 07:50:29;;;;;;;;;;;230.70;2252.80;;;;;;4965166;28;20077;-75
2024/02/21 07:52:55;;;;;;;;;;;230.70;2252.80;;;;;;4983702;28;19973;-77
2024/02/21 07:55:20;;;;;;;;;;;230.70;2252.80;;;;;;4986744;28;19910;-81
2024/02/21 07:57:46;;;;;;;;;;;230.70;2252.80;;;;;;4975330;28;20290;-76
2024/02/21 08:00:19;;;;;;;;;;;230.70;2252.80;;;;;;4988746;28;19913;-78
2024/02/21 08:02:51;;;;;;;;;;;230.80;2252.80;;;;;;4968880;28;20378;-78
2024/02/21 08:05:17;;;;;;;;;;;230.80;2252.80;;;;;;4988044;28;19906;-76
2024/02/21 08:07:43;;;;;;;;;;;230.80;2252.80;;;;;;4986090;28;19905;-75
2024/02/21 08:10:08;;;;;;;;;;;230.90;2252.80;;;;;;4981242;28;19914;-76
2024/02/21 08:12:34;;;;;;;;;;;230.90;2252.80;;;;;;4993884;28;19906;-74
2024/02/21 08:15:00;;;;;;;;;;;231.00;2252.80;;;;;;4976105;28;19979;-80
2024/02/21 08:17:26;;;;;;;;;;;231.10;2252.80;;;;;;4985483;28;19914;-80
2024/02/21 08:19:51;;;;;;;;;;;231.20;2252.80;;;;;;4987719;28;20394;-73
2024/02/21 08:22:17;;;;;;;;;;;231.20;2252.80;;;;;;4984856;28;19905;-75
2024/02/21 08:24:43;;;;;;;;;;;231.30;2252.80;;;;;;4987215;28;19910;-72
2024/02/21 08:27:08;;;;;;;;;;;231.30;2252.80;;;;;;4989557;28;19949;-72
2024/02/21 08:29:34;;;;;;;;;;;231.30;2252.80;;;;;;4984359;28;19989;-75
2024/02/21 08:31:59;;;;;;;;;;;256.00;2252.80;;;;;;4987038;28;19905;-76
2024/02/21 08:34:25;;;;;;;;;;;256.00;2252.80;;;;;;4994695;28;19960;-76
2024/02/21 08:36:51;;;;;;;;;;;256.00;2252.80;;;;;;4989759;28;19949;-78
2024/02/21 08:39:16;;;;;;;;;;;256.10;2252.80;;;;;;4969242;28;19959;-75
2024/02/21 08:41:42;;;;;;;;;;;256.20;2252.80;;;;;;4985804;28;20367;-77
2024/02/21 08:44:08;;;;;;;;;;;256.30;2252.80;;;;;;4992310;28;19905;-75
2024/02/21 08:46:33;;;;;;;;;;;256.40;2252.80;;;;;;4987827;28;19905;-75
2024/02/21 08:48:59;;;;;;;;;;;256.50;2252.80;;;;;;4989913;28;19921;-76
2024/02/21 08:51:25;;;;;;;;;;;256.40;2252.80;;;;;;4990859;28;20256;-79
2024/02/21 08:53:51;;;;;;;;;;;256.40;2252.80;;;;;;4987169;28;19918;-77
2024/02/21 08:56:17;;;;;;;;;;;256.40;2252.80;;;;;;4970944;28;19910;-77
2024/02/21 08:58:43;;;;;;;;;;;256.40;2252.80;;;;;;4965746;28;19906;-76
2024/02/21 09:01:11;;;;;;;;;;;256.40;2252.80;;;;;;4967932;28;20261;-77
2024/02/21 09:03:37;;;;;;;;;;;256.40;2252.80;;;;;;4990026;28;19905;-77
2024/02/21 09:06:04;;;;;;;;;;;256.40;2252.80;;;;;;4973838;28;20276;-77
2024/02/21 09:08:29;;;;;;;;;;;256.40;2252.80;;;;;;4969134;28;19990;-77
2024/02/21 09:10:55;;;;;;;;;;;256.40;2252.80;;;;;;4988084;28;19992;-81
2024/02/21 09:13:21;;;;;;;;;;;256.30;2252.80;;;;;;4969915;28;19910;-77
2024/02/21 09:15:47;;;;;;;;;;;256.30;2252.80;;;;;;4980613;28;20272;-75
2024/02/21 09:18:13;;;;;;;;;;;256.30;2252.80;;;;;;4992451;28;20056;-76
2024/02/21 09:20:38;;;;;;;;;;;256.40;2252.80;;;;;;4984975;28;19976;-75
2024/02/21 09:23:04;;;;;;;;;;;256.50;2252.80;;;;;;4982540;28;19906;-76
2024/02/21 09:25:30;;;;;;;;;;;256.60;2252.80;;;;;;4982483;28;20315;-75
2024/02/21 09:27:58;;;;;;;;;;;256.60;2252.80;;;;;;4993606;28;19945;-76
2024/02/21 09:30:23;;;;;;;;;;;256.60;2252.80;;;;;;4982786;28;19914;-76
2024/02/21 09:32:50;;;;;;;;;;;256.60;2252.80;;;;;;4974334;28;20324;-79
2024/02/21 09:35:15;;;;;;;;;;;256.30;2252.80;;;;;;4984918;28;19997;-76
2024/02/21 09:37:41;;;;;;;;;;;256.70;2252.80;;;;;;4987919;28;20324;-76
2024/02/21 09:40:07;;;;;;;;;;;256.70;2252.80;;;;;;4988222;28;19913;-76
2024/02/21 09:42:37;;;;;;;;;;;256.70;2252.80;;;;;;4966719;28;19913;-76
2024/02/21 09:45:07;;;;;;;;;;;256.70;2252.80;;;;;;4982951;28;19906;-80
2024/02/21 09:47:39;;;;;;;;;;;281.70;2278.40;;;;;;4968161;28;19993;-76
2024/02/21 09:50:05;;;;;;;;;;;281.60;2278.40;;;;;;4964752;28;19918;-76
2024/02/21 09:52:30;;;;;;;;;;;281.80;2278.40;;;;;;4967978;28;20004;-75
2024/02/21 09:54:58;;;;;;;;;;;281.80;2278.40;;;;;;4989253;28;19906;-75
2024/02/21 09:57:24;;;;;;;;;;;281.80;2278.40;;;;;;4994616;28;19952;-76
2024/02/21 09:59:51;;;;;;;;;;;281.80;2278.40;;;;;;4988281;28;20360;-77
2024/02/21 10:02:17;;;;;;;;;;;281.80;2278.40;;;;;;4985278;28;19914;-77
2024/02/21 10:04:43;;;;;;;;;;;281.80;2278.40;;;;;;4985653;28;19906;-76
2024/02/21 10:07:09;;;;;;;;;;;281.90;2278.40;;;;;;4983518;28;20292;-79
2024/02/21 10:09:34;;;;;;;;;;;282.00;2278.40;;;;;;4989939;28;19921;-79
2024/02/21 10:12:19;;;;;;;;;;;282.10;2278.40;;;;;;4990531;28;20417;-76
2024/02/21 10:14:44;;;;;;;;;;;282.20;2278.40;;;;;;4984986;28;19906;-76
2024/02/21 10:17:16;;;;;;;;;;;282.30;2278.40;;;;;;4987986;28;19938;-76
2024/02/21 10:19:41;;;;;;;;;;;282.40;2278.40;;;;;;4982637;28;19914;-76
2024/02/21 10:22:07;;;;;;;;;;;282.40;2278.40;;;;;;4986964;28;20049;-75
2024/02/21 10:24:41;;;;;;;;;;;282.50;2278.40;;;;;;4980831;28;19914;-75
2024/02/21 10:27:10;;;;;;;;;;;282.50;2278.40;;;;;;4981020;28;19910;-75
2024/02/21 10:29:36;;;;;;;;;;;282.50;2278.40;;;;;;4965837;28;20073;-75
2024/02/21 10:32:09;;;;;;;;;;;307.60;2304.00;;;;;;4974794;28;19989;-75
2024/02/21 10:34:35;;;;;;;;;;;332.80;2329.60;;;;;;4984780;28;19918;-76
2024/02/21 10:37:02;;;;;;;;;;;333.60;2329.60;;;;;;4992342;28;19913;-77
2024/02/21 10:39:27;;;;;;;;;;;358.80;2329.60;;;;;;4984878;28;20004;-77
2024/02/21 10:41:54;;;;;;;;;;;358.90;2329.60;;;;;;4976535;28;20013;-75
2024/02/21 10:44:21;;;;;;;;;;;359.20;2329.60;;;;;;4976841;28;20271;-78
2024/02/21 10:46:47;;;;;;;;;;;384.10;2329.60;;;;;;4990274;28;19910;-76
2024/02/21 10:49:26;;;;;;;;;;;384.30;2252.80;;;;;;4987966;28;19944;-75
2024/02/21 10:52:00;;;;;;;;;;;384.80;2227.20;;;;;;4988874;28;19913;-76
2024/02/21 10:54:45;;;;;;;;;;;409.70;2176.00;;;;;;4984518;28;20004;-76
2024/02/21 10:57:22;;;;;;;;;;;409.70;2099.20;;;;;;5101306;27;19913;-76
2024/02/21 10:59:48;;;;;;;;;;;410.00;2124.80;;;;;;5101614;28;19912;-76
2024/02/21 11:02:14;;;;;;;;;;;410.20;2124.80;;;;;;5105481;28;19911;-76
2024/02/21 11:04:40;;;;;;;;;;;409.90;2022.40;;;;;;5103571;28;19916;-76
2024/02/21 11:07:06;;;;;;;;;;;410.10;1996.80;;;;;;5104131;28;19909;-76
2024/02/21 11:09:32;;;;;;;;;;;410.40;2022.40;;;;;;5106018;28;19908;-76
2024/02/21 11:12:01;;;;;;;;;;;435.30;1971.20;;;;;;5097300;28;20322;-76
2024/02/21 11:14:27;;;;;;;;;;;435.30;1920.00;;;;;;5103728;28;19912;-76
2024/02/21 11:16:53;;;;;;;;;;;435.60;1894.40;;;;;;5100483;28;19916;-76
2024/02/21 11:19:22;;;;;;;;;;;435.30;1868.80;;;;;;5109156;28;20433;-75
2024/02/21 11:21:48;;;;;;;;;;;435.60;1868.80;;;;;;5101298;28;19908;-76
2024/02/21 11:24:14;;;;;;;;;;;435.50;1868.80;;;;;;5103455;28;19915;-76
2024/02/21 11:26:42;;;;;;;;;;;435.50;1843.20;;;;;;5105256;28;19926;-76
2024/02/21 11:29:09;;;;;;;;;;;410.40;1868.80;;;;;;5105503;28;19912;-77
2024/02/21 11:31:41;;;;;;;;;;;384.90;1945.60;;;;;;5093286;28;19915;-77
2024/02/21 11:34:11;;;;;;;;;;;410.30;1894.40;;;;;;5090591;28;19997;-76
2024/02/21 11:36:45;;;;;;;;;;;384.90;1920.00;;;;;;5102344;28;19923;-77
2024/02/21 11:39:11;;;;;;;;;;;384.90;1945.60;;;;;;5095055;28;19916;-77
2024/02/21 11:41:37;;;;;;;;;;;384.70;1971.20;;;;;;5099042;28;19912;-76
2024/02/21 11:44:03;;;;;;;;;;;384.90;1996.80;;;;;;5094879;28;20415;-76
2024/02/21 11:46:29;;;;;;;;;;;409.90;1971.20;;;;;;5099682;28;19926;-75
2024/02/21 11:48:54;;;;;;;;;;;384.50;2048.00;;;;;;5094947;28;19912;-76
2024/02/21 11:51:26;;;;;;;;;;;384.00;2073.60;;;;;;5095985;28;19908;-74
2024/02/21 11:53:55;;;;;;;;;;;359.00;2150.40;;;;;;5133795;27;19998;-75
2024/02/21 11:56:22;;;;;;;;;;;358.80;2176.00;;;;;;5133378;27;19970;-76
2024/02/21 11:58:48;;;;;;;;;;;358.80;2227.20;;;;;;5097826;28;19961;-76
2024/02/21 12:01:14;;;;;;;;;;;384.10;2227.20;;;;;;5099086;28;19927;-76
2024/02/21 12:03:41;;;;;;;;;;;384.20;2150.40;;;;;;5105383;28;20292;-76
2024/02/21 12:06:07;;;;;;;;;;;384.40;2073.60;;;;;;5101907;28;19908;-76
2024/02/21 12:08:43;;;;;;;;;;;435.60;2048.00;;;;;;5085135;28;20279;-77
2024/02/21 12:11:21;;;;;;;;;;;409.70;2022.40;;;;;;5090944;28;19999;-83
2024/02/21 12:13:47;;;;;;;;;;;409.80;1996.80;;;;;;5097582;28;19961;-77
2024/02/21 12:16:18;;;;;;;;;;;410.40;1945.60;;;;;;5078870;28;19920;-76
2024/02/21 12:18:43;;;;;;;;;;;410.30;1894.40;;;;;;5087328;28;19915;-76
2024/02/21 12:21:10;;;;;;;;;;;435.30;1894.40;;;;;;5078853;28;20283;-76
2024/02/21 12:23:37;;;;;;;;;;;435.60;1868.80;;;;;;5078431;28;19908;-76
2024/02/21 12:26:04;;;;;;;;;;;435.90;1817.60;;;;;;5085342;28;19916;-77
2024/02/21 12:28:30;;;;;;;;;;;410.50;1766.40;;;;;;5099948;28;19916;-76
2024/02/21 12:30:56;;;;;;;;;;;409.90;1868.80;;;;;;5115108;27;19915;-76
2024/02/21 12:33:22;;;;;;;;;;;409.70;1920.00;;;;;;5087145;28;20360;-77
2024/02/21 12:35:49;;;;;;;;;;;384.90;1894.40;;;;;;5112297;27;19912;-75
2024/02/21 12:38:14;;;;;;;;;;;384.60;1920.00;;;;;;5088640;28;19912;-77
2024/02/21 12:40:40;;;;;;;;;;;384.20;1920.00;;;;;;5083841;28;19909;-78
2024/02/21 12:43:06;;;;;;;;;;;384.10;1868.80;;;;;;5076308;28;19915;-76
2024/02/21 12:45:31;;;;;;;;;;;384.00;1894.40;;;;;;5083366;28;19917;-78
2024/02/21 12:47:57;;;;;;;;;;;359.20;1920.00;;;;;;5081098;28;19912;-77
2024/02/21 12:50:23;;;;;;;;;;;359.10;1971.20;;;;;;5084106;28;19916;-75
2024/02/21 12:52:49;;;;;;;;;;;359.00;1996.80;;;;;;5085748;28;19908;-75
2024/02/21 12:55:16;;;;;;;;;;;359.00;1971.20;;;;;;5117906;27;19933;-76
2024/02/21 12:57:41;;;;;;;;;;;358.80;1971.20;;;;;;5056394;28;19909;-75
2024/02/21 13:00:08;;;;;;;;;;;358.70;1996.80;;;;;;5062289;28;20007;-75
2024/02/21 13:02:34;;;;;;;;;;;358.70;1996.80;;;;;;5067263;28;19908;-76
2024/02/21 13:05:02;;;;;;;;;;;358.70;2022.40;;;;;;5062135;28;19913;-76
2024/02/21 13:07:28;;;;;;;;;;;358.40;2048.00;;;;;;5063315;28;19909;-76
2024/02/21 13:09:54;;;;;;;;;;;333.60;2022.40;;;;;;5057473;28;19913;-75
2024/02/21 13:12:19;;;;;;;;;;;333.50;2176.00;;;;;;5063999;28;19999;-77
2024/02/21 13:14:45;;;;;;;;;;;333.40;2278.40;;;;;;5072707;28;20272;-76
2024/02/21 13:17:11;;;;;;;;;;;333.30;2201.60;;;;;;5084308;28;19916;-75
2024/02/21 13:19:36;;;;;;;;;;;333.20;2201.60;;;;;;5056506;28;20004;-76
2024/02/21 13:22:02;;;;;;;;;;;333.20;2227.20;;;;;;5066072;28;19955;-79
2024/02/21 13:24:28;;;;;;;;;;;333.10;2252.80;;;;;;5059956;28;19916;-75
2024/02/21 13:26:53;;;;;;;;;;;333.00;2252.80;;;;;;5075983;28;19917;-76
2024/02/21 13:29:20;;;;;;;;;;;333.00;2252.80;;;;;;5059542;28;19948;-75
2024/02/21 13:31:46;;;;;;;;;;;333.00;2227.20;;;;;;5057857;28;19912;-75
2024/02/21 13:34:11;;;;;;;;;;;333.10;2227.20;;;;;;5044611;28;19934;-77
2024/02/21 13:36:37;;;;;;;;;;;333.10;2201.60;;;;;;5041068;28;20003;-75